createdAt,value
2019-01-13T00:01:16.535Z,90.70
2019-01-13T00:05:25.757Z,90.70
2019-01-13T00:09:35.092Z,90.90
2019-01-13T00:13:44.335Z,90.90
2019-01-13T00:17:53.552Z,90.80
2019-01-13T00:22:03.015Z,90.70
2019-01-13T00:26:12.258Z,90.70
2019-01-13T00:30:21.481Z,90.70
2019-01-13T00:34:30.787Z,90.70
2019-01-13T00:38:41.316Z,90.70
2019-01-13T00:42:50.713Z,90.60
2019-01-13T00:46:59.954Z,90.50
2019-01-13T00:51:09.197Z,90.50
2019-01-13T00:55:18.436Z,90.60
2019-01-13T00:59:27.677Z,90.70
2019-01-13T01:03:36.887Z,90.80
2019-01-13T01:07:47.453Z,91.00
2019-01-13T01:11:56.713Z,91.00
2019-01-13T01:16:06.083Z,91.10
2019-01-13T01:20:16.655Z,90.90
2019-01-13T01:24:25.882Z,91.10
2019-01-13T01:28:35.182Z,91.10
2019-01-13T01:32:44.467Z,90.90
2019-01-13T01:36:54.335Z,90.80
2019-01-13T01:41:03.656Z,90.90
2019-01-13T01:45:14.332Z,90.40
2019-01-13T01:49:23.564Z,90.20
2019-01-13T01:53:32.825Z,90.10
2019-01-13T01:57:42.066Z,90.10
2019-01-13T02:01:51.304Z,90.00
2019-01-13T02:06:00.531Z,90.00
2019-01-13T02:10:14.753Z,90.00
2019-01-13T02:14:23.970Z,90.00
2019-01-13T02:18:33.192Z,90.00
2019-01-13T02:22:42.413Z,89.80
2019-01-13T02:26:51.645Z,89.80
2019-01-13T02:31:00.911Z,89.60
2019-01-13T02:35:10.122Z,89.50
2019-01-13T02:39:19.349Z,89.60
2019-01-13T02:43:28.598Z,89.60
2019-01-13T02:47:37.863Z,89.70
2019-01-13T02:51:47.103Z,90.30
2019-01-13T02:55:56.326Z,89.80
2019-01-13T03:00:09.284Z,89.60
2019-01-13T03:04:18.509Z,89.50
2019-01-13T03:08:27.849Z,89.40
2019-01-13T03:12:37.401Z,89.00
2019-01-13T03:16:46.653Z,88.90
2019-01-13T03:20:55.883Z,89.60
2019-01-13T03:25:08.651Z,88.70
2019-01-13T03:29:17.920Z,89.20
2019-01-13T03:33:27.170Z,88.20
2019-01-13T03:37:36.427Z,88.10
2019-01-13T03:41:45.660Z,87.80
2019-01-13T03:45:54.871Z,88.00
2019-01-13T03:50:07.535Z,88.00
2019-01-13T03:54:16.775Z,88.00
2019-01-13T03:58:26.037Z,88.00
2019-01-13T04:02:35.254Z,89.00
2019-01-13T04:06:44.491Z,88.10
2019-01-13T04:10:53.743Z,88.10
2019-01-13T04:15:02.979Z,88.30
2019-01-13T04:19:13.322Z,88.30
2019-01-13T04:23:22.552Z,88.40
2019-01-13T04:27:31.840Z,88.50
2019-01-13T04:31:41.050Z,88.70
2019-01-13T04:35:50.388Z,88.70
2019-01-13T04:39:59.620Z,88.80
2019-01-13T04:44:08.856Z,88.90
2019-01-13T04:48:18.105Z,89.00
2019-01-13T04:52:27.333Z,89.10
2019-01-13T04:56:36.571Z,89.30
2019-01-13T05:00:45.824Z,89.70
2019-01-13T05:04:55.043Z,89.80
2019-01-13T05:09:07.096Z,90.00
2019-01-13T05:13:16.806Z,90.00
2019-01-13T05:17:26.018Z,90.00
2019-01-13T05:21:35.280Z,90.20
2019-01-13T05:25:44.475Z,90.10
2019-01-13T05:29:53.707Z,90.00
2019-01-13T05:34:02.927Z,90.00
2019-01-13T05:38:12.161Z,90.00
2019-01-13T05:42:21.400Z,90.00
2019-01-13T05:46:30.644Z,89.80
2019-01-13T05:50:39.871Z,89.70
2019-01-13T05:54:49.157Z,90.20
2019-01-13T05:58:58.383Z,89.90
2019-01-13T06:03:07.678Z,90.00
2019-01-13T06:07:16.895Z,90.40
2019-01-13T06:11:26.135Z,90.00
2019-01-13T06:15:35.345Z,90.00
2019-01-13T06:19:44.576Z,89.80
2019-01-13T06:23:53.820Z,90.00
2019-01-13T06:28:03.085Z,90.00
2019-01-13T06:32:12.291Z,90.00
2019-01-13T06:36:21.509Z,89.90
2019-01-13T06:40:30.909Z,89.60
2019-01-13T06:44:40.238Z,89.60
2019-01-13T06:48:49.491Z,89.40
2019-01-13T06:52:58.754Z,89.20
2019-01-13T06:57:07.976Z,89.20
2019-01-13T07:01:17.225Z,89.30
2019-01-13T07:05:26.455Z,89.30
2019-01-13T07:09:35.683Z,89.40
2019-01-13T07:13:44.919Z,89.30
2019-01-13T07:17:54.148Z,89.40
2019-01-13T07:22:03.380Z,89.40
2019-01-13T07:26:12.623Z,89.20
2019-01-13T07:30:22.445Z,89.20
2019-01-13T07:34:31.793Z,89.10
2019-01-13T07:38:41.036Z,89.00
2019-01-13T07:42:50.264Z,88.90
2019-01-13T07:46:59.857Z,88.90
2019-01-13T07:51:09.098Z,88.90
2019-01-13T07:55:21.317Z,88.90
2019-01-13T07:59:30.517Z,88.80
2019-01-13T08:03:39.739Z,88.80
2019-01-13T08:07:48.986Z,89.00
2019-01-13T08:11:58.217Z,89.00
2019-01-13T08:16:07.445Z,89.00
2019-01-13T08:20:19.713Z,89.00
2019-01-13T08:24:29.134Z,89.00
2019-01-13T08:28:38.483Z,89.00
2019-01-13T08:32:47.704Z,89.00
2019-01-13T08:36:56.952Z,89.20
2019-01-13T08:41:06.164Z,89.00
2019-01-13T08:45:15.459Z,89.20
2019-01-13T08:49:24.789Z,89.00
2019-01-13T08:53:34.341Z,89.10
2019-01-13T08:57:43.619Z,89.30
2019-01-13T09:01:52.859Z,90.00
2019-01-13T09:06:02.114Z,90.30
2019-01-13T09:10:16.692Z,90.70
2019-01-13T09:14:25.907Z,91.00
2019-01-13T09:18:35.152Z,91.40
2019-01-13T09:22:44.390Z,91.60
2019-01-13T09:26:53.615Z,91.90
2019-01-13T09:31:02.861Z,92.10
2019-01-13T09:35:12.086Z,92.20
2019-01-13T09:39:21.301Z,92.40
2019-01-13T09:43:30.530Z,92.40
2019-01-13T09:47:39.855Z,92.40
2019-01-13T09:51:49.185Z,92.40
2019-01-13T09:55:58.671Z,92.40
2019-01-13T10:00:22.862Z,92.40
2019-01-13T10:04:32.106Z,92.50
2019-01-13T10:08:41.348Z,92.60
2019-01-13T10:12:50.604Z,92.70
2019-01-13T10:16:59.910Z,92.80
2019-01-13T10:21:09.598Z,92.80
2019-01-13T10:25:20.455Z,92.80
2019-01-13T10:29:29.680Z,92.70
2019-01-13T10:33:39.293Z,92.70
2019-01-13T10:37:48.545Z,92.80
2019-01-13T10:41:58.191Z,92.90
2019-01-13T10:46:07.563Z,93.10
2019-01-13T10:50:19.600Z,93.20
2019-01-13T10:54:29.078Z,93.30
2019-01-13T10:58:38.278Z,93.50
2019-01-13T11:02:47.546Z,93.70
2019-01-13T11:06:56.784Z,93.70
2019-01-13T11:11:06.078Z,93.90
2019-01-13T11:15:21.510Z,94.00
2019-01-13T11:19:27.758Z,94.10
2019-01-13T11:23:37.455Z,94.10
2019-01-13T11:27:46.878Z,94.20
2019-01-13T11:31:56.692Z,94.40
2019-01-13T11:36:05.951Z,94.50
2019-01-13T11:40:18.478Z,94.80
2019-01-13T11:44:29.433Z,94.90
2019-01-13T11:48:38.641Z,95.00
2019-01-13T11:52:47.946Z,95.00
2019-01-13T11:56:57.191Z,95.10
2019-01-13T12:01:06.889Z,95.10
2019-01-13T12:05:16.200Z,95.00
2019-01-13T12:09:25.513Z,94.90
2019-01-13T12:13:34.933Z,94.60
2019-01-13T12:17:44.471Z,94.40
2019-01-13T12:21:53.731Z,94.20
2019-01-13T12:26:03.392Z,94.10
2019-01-13T12:30:21.683Z,93.90
2019-01-13T12:34:31.041Z,93.70
2019-01-13T12:38:40.280Z,93.50
2019-01-13T12:42:49.878Z,93.20
2019-01-13T12:46:59.137Z,93.00
2019-01-13T12:51:08.415Z,93.10
2019-01-13T12:55:17.644Z,93.00
2019-01-13T12:59:26.864Z,92.60
2019-01-13T13:03:36.149Z,92.30
2019-01-13T13:07:46.670Z,92.10
2019-01-13T13:11:55.902Z,92.00
2019-01-13T13:16:05.658Z,92.10
2019-01-13T13:20:16.060Z,92.00
2019-01-13T13:24:25.422Z,91.90
2019-01-13T13:28:34.649Z,91.70
2019-01-13T13:32:43.918Z,91.50
2019-01-13T13:36:53.160Z,91.40
2019-01-13T13:41:02.503Z,91.30
2019-01-13T13:45:11.859Z,91.20
2019-01-13T13:49:21.180Z,91.40
2019-01-13T13:53:30.384Z,91.70
2019-01-13T13:57:39.919Z,92.00
2019-01-13T14:01:49.136Z,92.30
2019-01-13T14:05:58.377Z,92.60
2019-01-13T14:10:11.233Z,93.00
2019-01-13T14:14:20.678Z,93.30
2019-01-13T14:18:29.918Z,93.50
2019-01-13T14:22:39.241Z,93.50
2019-01-13T14:26:48.461Z,93.30
2019-01-13T14:30:58.012Z,93.20
2019-01-13T14:35:08.448Z,93.10
2019-01-13T14:39:17.684Z,93.20
2019-01-13T14:43:26.957Z,93.50
2019-01-13T14:47:36.195Z,93.50
2019-01-13T14:51:45.452Z,93.60
2019-01-13T14:55:56.240Z,93.70
2019-01-13T15:00:20.286Z,93.90
2019-01-13T15:04:29.584Z,94.20
2019-01-13T15:08:38.809Z,94.50
2019-01-13T15:12:48.050Z,94.90
2019-01-13T15:16:57.339Z,95.10
2019-01-13T15:47:39.953Z,85.20
2019-01-13T15:51:48.394Z,91.90
2019-01-13T15:55:57.429Z,93.60
2019-01-13T16:00:07.520Z,94.50
2019-01-13T16:04:15.986Z,95.20
2019-01-13T16:08:24.551Z,95.70
2019-01-13T16:12:33.054Z,96.00
2019-01-13T16:16:41.553Z,96.10
2019-01-13T16:20:50.084Z,96.10
2019-01-13T16:24:58.564Z,96.10
2019-01-13T16:29:07.091Z,96.10
2019-01-13T16:33:15.519Z,96.20
2019-01-13T16:37:24.009Z,96.50
2019-01-13T16:41:32.634Z,96.60
2019-01-13T16:45:41.029Z,96.90
2019-01-13T16:49:49.453Z,97.10
2019-01-13T16:53:57.915Z,97.20
2019-01-13T17:14:31.225Z,70.60
2019-01-13T17:22:45.471Z,86.60
2019-01-13T17:26:54.710Z,91.00
2019-01-13T17:31:04.578Z,93.00
2019-01-13T17:35:13.791Z,94.00
2019-01-13T17:39:23.041Z,94.50
2019-01-13T17:43:32.274Z,94.40
2019-01-13T17:47:41.550Z,94.50
2019-01-13T17:51:50.925Z,94.70
2019-01-13T17:56:00.681Z,94.90
2019-01-13T18:00:21.991Z,95.20
2019-01-13T18:04:31.267Z,95.30
2019-01-13T18:08:40.514Z,95.30
2019-01-13T18:12:49.747Z,95.10
2019-01-13T18:17:06.233Z,94.80
2019-01-13T18:21:09.847Z,94.70
2019-01-13T18:25:19.061Z,94.60
2019-01-13T18:29:28.283Z,94.20
2019-01-13T18:33:37.502Z,93.90
2019-01-13T18:37:46.746Z,93.40
2019-01-13T18:41:56.001Z,93.20
2019-01-13T18:46:05.241Z,93.10
2019-01-13T18:50:17.069Z,92.80
2019-01-13T18:54:26.713Z,92.50
2019-01-13T18:58:35.956Z,92.40
2019-01-13T19:02:47.274Z,92.40
2019-01-13T19:06:57.195Z,92.00
2019-01-13T19:11:10.075Z,91.80
2019-01-13T19:15:19.292Z,91.80
2019-01-13T19:19:29.243Z,91.20
2019-01-13T19:23:38.804Z,91.20
2019-01-13T19:27:47.983Z,91.80
2019-01-13T19:31:57.970Z,90.80
2019-01-13T19:36:07.332Z,90.60
2019-01-13T19:40:18.539Z,90.30
2019-01-13T19:44:28.666Z,89.70
2019-01-13T19:48:38.556Z,89.60
2019-01-13T19:52:47.929Z,89.40
2019-01-13T19:56:57.162Z,89.70
2019-01-13T20:01:06.422Z,90.00
2019-01-13T20:05:15.792Z,90.10
2019-01-13T20:09:25.194Z,90.30
2019-01-13T20:13:34.395Z,90.30
2019-01-13T20:17:43.628Z,90.30
2019-01-13T20:21:52.851Z,90.30
2019-01-13T20:26:02.201Z,90.40
2019-01-13T20:30:14.827Z,90.40
2019-01-13T20:34:24.019Z,90.40
2019-01-13T20:38:34.566Z,90.60
2019-01-13T20:42:43.958Z,90.70
2019-01-13T20:46:53.155Z,90.90
2019-01-13T20:51:02.429Z,90.90
2019-01-13T20:55:14.364Z,90.40
2019-01-13T20:59:23.612Z,90.10
2019-01-13T21:03:32.825Z,87.40
2019-01-13T21:07:42.410Z,86.50
2019-01-13T21:11:51.737Z,85.30
2019-01-13T21:16:00.984Z,85.40
2019-01-13T21:20:10.633Z,87.90
2019-01-13T21:24:19.868Z,90.40
2019-01-13T21:28:29.259Z,90.70
2019-01-13T21:32:38.513Z,90.50
2019-01-13T21:36:47.763Z,90.60
2019-01-13T21:40:57.000Z,90.60
2019-01-13T21:45:09.723Z,90.80
2019-01-13T21:49:18.966Z,90.60
2019-01-13T21:53:28.346Z,90.40
2019-01-13T21:57:37.574Z,90.40
2019-01-13T22:01:46.823Z,90.60
2019-01-13T22:05:56.076Z,90.40
2019-01-13T22:10:11.219Z,90.60
2019-01-13T22:14:20.420Z,90.40
2019-01-13T22:18:29.694Z,89.20
2019-01-13T22:22:38.934Z,89.20
2019-01-13T22:26:48.160Z,88.80
2019-01-13T22:30:57.391Z,89.00
2019-01-13T22:35:06.665Z,88.30
2019-01-13T22:39:15.905Z,87.70
2019-01-13T22:43:26.304Z,85.90
2019-01-13T22:47:35.530Z,85.80
2019-01-13T22:51:44.772Z,84.40
2019-01-13T22:55:53.971Z,83.40
2019-01-13T23:00:27.273Z,82.30
2019-01-13T23:04:36.514Z,81.30
2019-01-13T23:08:45.729Z,81.20
2019-01-13T23:12:54.979Z,81.90
2019-01-13T23:17:04.217Z,81.20
2019-01-13T23:21:13.728Z,81.30
2019-01-13T23:25:22.993Z,82.30
2019-01-13T23:29:32.216Z,83.00
2019-01-13T23:33:41.401Z,83.00
2019-01-13T23:37:50.675Z,82.20
2019-01-13T23:41:59.906Z,81.60
2019-01-13T23:46:09.162Z,81.60
2019-01-13T23:50:18.399Z,81.90
2019-01-13T23:54:27.617Z,82.20
2019-01-13T23:58:36.851Z,82.20
